Ace, Texas
Current Conditions -  °F | °C
As of 9:15 AM on Friday 28 Nov 2014 (Local Time) from K6R3 Reporting Station
Clear Clear  
Wind Chill: 51°   Ceiling: Unl
Heat Index: 51°   Visibility: 7mi
Dew Point: 47°   Wind: 3mph
Humidity: 85%   Direction: 140°SE
Pressure: 30.37"   Gusts: NA
Location:  30.54°N, 94.82°W
Report Text: K6R3 281515Z AUTO 14003KT 7SM CLR 11/08 A3037 RMK AO2 T01080083
Loading
Personal Weather Stations






























Interactive Weather Map New forecast layout! Learn more

10-Day Weather Forecast

Advertisements
Track Severe Weather on mobile